createdAt,value
2019-05-18T00:00:35.994Z,85.42
2019-05-18T00:03:07.889Z,85.59
2019-05-18T00:05:39.379Z,85.83
2019-05-18T00:08:11.080Z,86.12
2019-05-18T00:10:42.759Z,85.87
2019-05-18T00:13:16.027Z,86.02
2019-05-18T00:15:47.374Z,85.94
2019-05-18T00:18:18.606Z,86.32
2019-05-18T00:20:51.312Z,86.47
2019-05-18T00:23:22.769Z,86.14
2019-05-18T00:25:54.154Z,86.15
2019-05-18T00:28:25.733Z,85.74
2019-05-18T00:30:56.650Z,85.66
2019-05-18T00:33:28.323Z,86.67
2019-05-18T00:35:59.688Z,86.30
2019-05-18T00:38:31.005Z,86.41
2019-05-18T00:41:02.380Z,86.27
2019-05-18T00:43:34.531Z,86.08
2019-05-18T00:46:06.918Z,86.19
2019-05-18T00:48:38.302Z,85.91
2019-05-18T00:51:09.776Z,86.17
2019-05-18T00:53:42.382Z,86.21
2019-05-18T00:56:13.964Z,86.54
2019-05-18T00:58:45.164Z,86.77
2019-05-18T01:01:16.544Z,86.34
2019-05-18T01:03:47.622Z,87.01
2019-05-18T01:06:18.593Z,87.16
2019-05-18T01:08:49.924Z,87.76
2019-05-18T01:11:20.660Z,87.98
2019-05-18T01:13:53.970Z,88.26
2019-05-18T01:16:25.694Z,87.69
2019-05-18T01:18:58.592Z,87.68
2019-05-18T01:21:29.786Z,87.80
2019-05-18T01:24:01.048Z,87.63
2019-05-18T01:26:32.651Z,87.42
2019-05-18T01:29:05.409Z,87.27
2019-05-18T01:31:37.071Z,87.15
2019-05-18T01:34:08.723Z,87.20
2019-05-18T01:36:40.107Z,86.68
2019-05-18T01:39:11.660Z,87.11
2019-05-18T01:41:43.088Z,87.44
2019-05-18T01:44:14.643Z,87.31
2019-05-18T01:46:45.430Z,87.55
2019-05-18T01:49:16.846Z,87.38
2019-05-18T01:51:48.294Z,87.48
2019-05-18T01:54:19.649Z,87.08
2019-05-18T01:56:50.947Z,87.03
2019-05-18T01:59:22.336Z,87.32
2019-05-18T02:01:53.863Z,86.53
2019-05-18T02:04:25.131Z,87.39
2019-05-18T02:06:56.445Z,86.84
2019-05-18T02:09:27.800Z,86.92
2019-05-18T02:11:59.015Z,87.12
2019-05-18T02:14:31.984Z,87.34
2019-05-18T02:17:03.342Z,87.56
2019-05-18T02:19:34.708Z,87.45
2019-05-18T02:22:06.186Z,87.48
2019-05-18T02:24:37.361Z,87.25
2019-05-18T02:27:09.018Z,87.10
2019-05-18T02:29:40.662Z,87.37
2019-05-18T02:32:11.758Z,87.78
2019-05-18T02:34:43.094Z,88.34
2019-05-18T02:37:14.330Z,88.15
2019-05-18T02:39:45.578Z,88.02
2019-05-18T02:42:16.960Z,88.05
2019-05-18T02:44:48.620Z,88.42
2019-05-18T02:47:20.056Z,88.57
2019-05-18T02:49:51.833Z,89.14
2019-05-18T02:52:22.915Z,89.24
2019-05-18T02:54:54.215Z,88.96
2019-05-18T02:57:25.643Z,88.49
2019-05-18T02:59:57.060Z,88.39
2019-05-18T03:02:28.383Z,88.23
2019-05-18T03:04:59.410Z,87.86
2019-05-18T03:07:30.622Z,88.44
2019-05-18T03:10:02.297Z,88.82
2019-05-18T03:12:34.001Z,89.21
2019-05-18T03:15:06.869Z,88.98
2019-05-18T03:17:38.136Z,89.03
2019-05-18T03:20:10.932Z,88.56
2019-05-18T03:22:42.086Z,88.04
2019-05-18T03:25:14.150Z,87.96
2019-05-18T03:27:45.562Z,88.54
2019-05-18T03:30:17.145Z,88.91
2019-05-18T03:32:48.729Z,88.56
2019-05-18T03:35:21.080Z,88.09
2019-05-18T03:37:53.400Z,87.40
2019-05-18T03:40:24.393Z,87.89
2019-05-18T03:42:55.866Z,87.73
2019-05-18T03:45:27.368Z,87.89
2019-05-18T03:47:58.443Z,88.01
2019-05-18T03:50:30.282Z,87.81
2019-05-18T03:53:02.124Z,88.43
2019-05-18T03:55:33.803Z,89.60
2019-05-18T03:58:05.492Z,90.75
2019-05-18T04:00:37.051Z,91.19
2019-05-18T04:03:08.649Z,91.67
2019-05-18T04:05:39.870Z,92.10
2019-05-18T04:08:11.234Z,92.00
2019-05-18T04:10:42.570Z,92.11
2019-05-18T04:13:13.544Z,92.92
2019-05-18T04:15:45.068Z,92.87
2019-05-18T04:18:16.475Z,92.86
2019-05-18T04:20:48.178Z,93.45
2019-05-18T04:23:19.787Z,94.72
2019-05-18T04:25:51.397Z,94.77
2019-05-18T04:28:22.257Z,94.23
2019-05-18T04:30:53.263Z,94.03
2019-05-18T04:33:24.743Z,94.73
2019-05-18T04:35:56.803Z,94.31
2019-05-18T04:38:28.085Z,94.73
2019-05-18T04:40:59.422Z,95.04
2019-05-18T04:43:30.839Z,94.88
2019-05-18T04:46:02.111Z,94.86
2019-05-18T04:48:36.026Z,95.07
2019-05-18T04:51:07.491Z,95.73
2019-05-18T04:53:38.417Z,95.83
2019-05-18T04:56:10.305Z,95.84
2019-05-18T04:58:41.963Z,95.82
2019-05-18T05:01:13.405Z,95.78
2019-05-18T05:03:45.346Z,95.79
2019-05-18T05:06:17.754Z,95.82
2019-05-18T05:08:49.065Z,95.79
2019-05-18T05:11:20.382Z,95.84
2019-05-18T05:13:52.001Z,95.94
2019-05-18T05:16:25.651Z,96.01
2019-05-18T05:18:56.881Z,96.01
2019-05-18T05:21:28.593Z,96.07
2019-05-18T05:24:00.298Z,96.14
2019-05-18T05:26:31.649Z,95.92
2019-05-18T05:29:03.115Z,95.36
2019-05-18T05:31:34.809Z,95.09
2019-05-18T05:34:06.799Z,94.98
2019-05-18T05:36:38.360Z,94.60
2019-05-18T05:39:09.541Z,94.32
2019-05-18T05:41:40.728Z,93.76
2019-05-18T05:44:12.208Z,93.30
2019-05-18T05:46:43.905Z,93.40
2019-05-18T05:49:16.070Z,93.66
2019-05-18T05:51:47.301Z,93.63
2019-05-18T05:54:18.317Z,93.55
2019-05-18T05:56:49.704Z,92.90
2019-05-18T05:59:21.097Z,92.69
2019-05-18T06:01:52.699Z,91.86
2019-05-18T06:04:24.486Z,91.28
2019-05-18T06:06:57.474Z,89.97
2019-05-18T06:09:30.634Z,89.22
2019-05-18T06:12:03.721Z,89.33
2019-05-18T06:14:34.790Z,89.21
2019-05-18T06:17:08.411Z,88.70
2019-05-18T06:19:39.334Z,88.73
2019-05-18T06:22:11.020Z,88.08
2019-05-18T06:24:42.195Z,87.64
2019-05-18T06:27:13.635Z,87.17
2019-05-18T06:29:45.550Z,87.38
2019-05-18T06:32:16.868Z,86.68
2019-05-18T06:34:48.202Z,86.31
2019-05-18T06:37:19.906Z,84.75
2019-05-18T06:39:51.346Z,83.10
2019-05-18T06:42:23.197Z,82.29
2019-05-18T06:44:54.498Z,83.85
2019-05-18T06:47:26.073Z,83.88
2019-05-18T06:49:57.545Z,82.05
2019-05-18T06:52:28.908Z,82.47
2019-05-18T06:55:01.846Z,82.77
2019-05-18T06:57:35.018Z,80.44
2019-05-18T07:00:09.460Z,80.11
2019-05-18T07:02:40.853Z,78.63
2019-05-18T07:05:12.435Z,79.37
2019-05-18T07:07:44.758Z,78.77
2019-05-18T07:10:15.803Z,79.02
2019-05-18T07:12:47.869Z,80.41
2019-05-18T07:15:19.637Z,80.47
2019-05-18T07:17:51.774Z,78.67
2019-05-18T07:20:22.901Z,78.52
2019-05-18T07:22:54.389Z,78.76
2019-05-18T07:25:25.558Z,77.24
2019-05-18T07:27:56.746Z,77.45
2019-05-18T07:30:30.597Z,75.74
2019-05-18T07:33:02.005Z,77.43
2019-05-18T07:35:33.365Z,75.87
2019-05-18T07:38:06.629Z,75.56
2019-05-18T07:40:37.948Z,74.87
2019-05-18T07:43:09.781Z,73.21
2019-05-18T07:45:41.173Z,73.11
2019-05-18T07:48:12.453Z,71.82
2019-05-18T07:50:43.493Z,72.14
2019-05-18T07:53:14.949Z,72.35
2019-05-18T07:55:45.323Z,70.17
2019-05-18T07:58:16.757Z,69.48
2019-05-18T08:00:47.874Z,70.27
2019-05-18T08:03:19.019Z,69.77
2019-05-18T08:05:53.310Z,69.02
2019-05-18T08:08:24.765Z,67.00
2019-05-18T08:10:56.459Z,68.55
2019-05-18T08:13:26.687Z,68.08
2019-05-18T08:15:57.113Z,66.73
2019-05-18T08:18:27.109Z,67.09
2019-05-18T08:20:58.215Z,65.79
2019-05-18T08:23:29.539Z,65.34
2019-05-18T08:26:00.433Z,65.12
2019-05-18T08:28:31.991Z,67.12
2019-05-18T08:31:03.524Z,65.21
2019-05-18T08:33:35.356Z,66.58
2019-05-18T08:36:07.526Z,65.03
2019-05-18T08:38:39.140Z,64.69
2019-05-18T08:41:10.173Z,66.06
2019-05-18T08:43:40.938Z,64.51
2019-05-18T08:46:11.663Z,61.16
2019-05-18T08:48:42.667Z,60.38
2019-05-18T08:51:13.930Z,58.72
2019-05-18T08:53:44.756Z,55.46
2019-05-18T08:56:15.716Z,58.57
2019-05-18T08:58:47.192Z,59.24
2019-05-18T09:01:25.028Z,59.63
2019-05-18T09:03:59.140Z,59.82
2019-05-18T09:06:30.024Z,57.65
2019-05-18T09:09:01.601Z,60.32
2019-05-18T09:11:35.072Z,59.14
2019-05-18T09:14:06.559Z,57.58
2019-05-18T09:16:40.259Z,58.22
2019-05-18T09:19:11.754Z,55.13
2019-05-18T09:21:43.822Z,56.28
2019-05-18T09:24:16.073Z,56.06
2019-05-18T09:26:46.902Z,56.31
2019-05-18T09:29:17.826Z,55.94
2019-05-18T09:31:48.336Z,58.96
2019-05-18T09:34:19.094Z,55.97
2019-05-18T09:36:50.230Z,54.40
2019-05-18T09:39:21.356Z,55.56
2019-05-18T09:41:52.977Z,52.40
2019-05-18T09:44:24.675Z,52.20
2019-05-18T09:46:55.648Z,53.55
2019-05-18T09:49:29.495Z,53.17
2019-05-18T09:52:01.317Z,52.52
2019-05-18T09:54:34.459Z,51.63
2019-05-18T09:57:05.429Z,54.95
2019-05-18T09:59:40.071Z,51.83
2019-05-18T10:02:12.699Z,50.84
2019-05-18T10:04:44.057Z,50.73
2019-05-18T10:07:14.669Z,52.85
2019-05-18T10:09:47.745Z,51.18
2019-05-18T10:12:19.551Z,52.14
2019-05-18T10:14:51.389Z,51.99
2019-05-18T10:17:24.989Z,52.14
2019-05-18T10:19:55.733Z,51.21
2019-05-18T10:22:26.466Z,51.20
2019-05-18T10:24:56.994Z,52.52
2019-05-18T10:27:27.614Z,51.13
2019-05-18T10:29:58.546Z,51.96
2019-05-18T10:32:30.412Z,53.46
2019-05-18T10:35:01.139Z,53.40
2019-05-18T10:37:32.097Z,54.12
2019-05-18T10:40:04.609Z,55.08
2019-05-18T10:42:36.168Z,52.90
2019-05-18T10:45:09.195Z,50.60
2019-05-18T10:47:40.790Z,52.50
2019-05-18T10:50:13.962Z,51.11
2019-05-18T10:52:46.037Z,51.67
2019-05-18T10:55:17.415Z,51.75
2019-05-18T10:57:48.929Z,53.08
2019-05-18T11:00:21.106Z,51.31
2019-05-18T11:02:51.325Z,52.21
2019-05-18T11:05:23.151Z,51.28
2019-05-18T11:07:53.814Z,51.83
2019-05-18T11:10:27.161Z,50.16
2019-05-18T11:12:58.988Z,49.06
2019-05-18T11:15:29.724Z,49.56
2019-05-18T11:18:03.191Z,50.31
2019-05-18T11:20:34.854Z,50.86
2019-05-18T11:23:07.757Z,50.50
2019-05-18T11:25:39.693Z,51.67
2019-05-18T11:28:10.461Z,48.75
2019-05-18T11:30:40.883Z,49.99
2019-05-18T11:33:11.708Z,48.57
2019-05-18T11:35:44.603Z,47.88
2019-05-18T11:38:17.665Z,49.18
2019-05-18T11:40:50.009Z,49.53
2019-05-18T11:43:21.764Z,46.63
2019-05-18T11:45:54.347Z,45.85
2019-05-18T11:48:25.719Z,45.38
2019-05-18T11:50:57.212Z,45.79
2019-05-18T11:53:30.396Z,45.95
2019-05-18T11:56:02.764Z,45.34
2019-05-18T11:58:35.648Z,45.36
2019-05-18T12:01:08.688Z,47.22
2019-05-18T12:03:41.083Z,45.89
2019-05-18T12:06:13.938Z,48.62
2019-05-18T12:08:45.550Z,45.15
2019-05-18T12:11:17.052Z,45.71
2019-05-18T12:13:48.891Z,46.74
2019-05-18T12:16:22.435Z,46.82
2019-05-18T12:18:57.528Z,44.53
2019-05-18T12:21:30.285Z,45.86
2019-05-18T12:24:14.734Z,46.78
2019-05-18T12:26:37.570Z,45.86
2019-05-18T12:29:09.616Z,46.70
2019-05-18T12:31:42.547Z,47.19
2019-05-18T12:34:15.151Z,46.07
2019-05-18T12:36:46.871Z,46.93
2019-05-18T12:39:18.594Z,45.96
2019-05-18T12:41:51.658Z,45.80
2019-05-18T12:44:26.699Z,43.54
2019-05-18T12:47:01.645Z,45.50
2019-05-18T12:49:32.941Z,43.97
2019-05-18T12:52:05.890Z,45.25
2019-05-18T12:54:46.484Z,47.08
2019-05-18T12:57:13.803Z,44.75
2019-05-18T12:59:46.740Z,44.86
2019-05-18T13:02:18.308Z,46.68
2019-05-18T13:04:50.193Z,45.62
2019-05-18T13:07:23.228Z,46.55
2019-05-18T13:09:55.834Z,45.64
2019-05-18T13:12:26.202Z,45.77
2019-05-18T13:14:57.854Z,45.01
2019-05-18T13:17:29.004Z,45.36
2019-05-18T13:20:01.252Z,45.55
2019-05-18T13:22:32.479Z,44.03
2019-05-18T13:25:03.164Z,45.76
2019-05-18T13:27:39.303Z,43.53
2019-05-18T13:30:08.130Z,44.11
2019-05-18T13:32:40.582Z,43.56
2019-05-18T13:35:14.108Z,44.64
2019-05-18T13:37:47.107Z,44.98
2019-05-18T13:40:20.249Z,47.51
2019-05-18T13:42:51.896Z,44.71
2019-05-18T13:45:23.576Z,45.63
2019-05-18T13:47:55.593Z,44.23
2019-05-18T13:50:26.875Z,42.74
2019-05-18T13:52:58.542Z,43.64
2019-05-18T13:55:30.846Z,44.46
2019-05-18T13:58:02.672Z,44.21
2019-05-18T14:00:34.731Z,43.89
2019-05-18T14:03:06.076Z,42.82
2019-05-18T14:05:38.998Z,43.69
2019-05-18T14:08:15.558Z,41.99
2019-05-18T14:10:43.948Z,42.01
2019-05-18T14:13:16.795Z,41.93
2019-05-18T14:15:47.437Z,40.65
2019-05-18T14:18:18.753Z,41.23
2019-05-18T14:20:51.616Z,39.07
2019-05-18T14:23:21.970Z,38.17
2019-05-18T14:25:53.169Z,38.76
2019-05-18T14:28:23.813Z,39.56
2019-05-18T14:30:54.054Z,39.87
2019-05-18T14:33:25.953Z,40.56
2019-05-18T14:35:56.864Z,40.97
2019-05-18T14:38:28.002Z,40.29
2019-05-18T14:40:59.069Z,40.90
2019-05-18T14:43:29.909Z,40.47
2019-05-18T14:46:01.589Z,39.84
2019-05-18T14:48:33.451Z,40.19
2019-05-18T14:51:05.597Z,39.88
2019-05-18T14:53:36.712Z,39.43
2019-05-18T14:56:07.991Z,39.07
2019-05-18T14:58:39.011Z,40.63
2019-05-18T15:01:10.378Z,38.95
2019-05-18T15:03:40.632Z,39.64
2019-05-18T15:06:11.094Z,38.92
2019-05-18T15:08:42.529Z,38.98
2019-05-18T15:11:14.049Z,40.34
2019-05-18T15:13:45.247Z,39.05
2019-05-18T15:16:16.908Z,39.09
2019-05-18T15:18:48.223Z,37.16
2019-05-18T15:21:22.732Z,38.74
2019-05-18T15:23:55.423Z,38.46
2019-05-18T15:26:26.393Z,37.32
2019-05-18T15:28:57.486Z,38.29
2019-05-18T15:31:29.437Z,36.59
2019-05-18T15:34:00.937Z,37.67
2019-05-18T15:36:32.800Z,37.76
2019-05-18T15:39:07.466Z,38.26
2019-05-18T15:41:40.516Z,38.01
2019-05-18T15:44:11.899Z,37.46
2019-05-18T15:46:43.136Z,37.70
2019-05-18T15:49:14.567Z,37.11
2019-05-18T15:51:45.699Z,37.92
2019-05-18T15:54:18.414Z,37.04
2019-05-18T15:56:49.363Z,37.45
2019-05-18T15:59:20.849Z,38.12
2019-05-18T16:01:51.873Z,38.04
2019-05-18T16:04:24.946Z,37.50
2019-05-18T16:06:56.029Z,38.64
2019-05-18T16:09:28.907Z,38.48
2019-05-18T16:12:01.597Z,39.16
2019-05-18T16:14:33.372Z,38.33
2019-05-18T16:17:06.162Z,38.10
2019-05-18T16:19:37.681Z,38.80
2019-05-18T16:22:08.455Z,38.33
2019-05-18T16:24:43.138Z,39.69
2019-05-18T16:27:14.956Z,39.58
2019-05-18T16:29:45.268Z,39.56
2019-05-18T16:32:15.716Z,39.28
2019-05-18T16:34:46.902Z,39.88
2019-05-18T16:37:20.369Z,39.44
2019-05-18T16:39:51.937Z,39.31
2019-05-18T16:42:22.433Z,39.47
2019-05-18T16:44:54.388Z,39.21
2019-05-18T16:47:25.128Z,40.55
2019-05-18T16:49:57.138Z,39.05
2019-05-18T16:52:28.406Z,39.12
2019-05-18T16:55:01.065Z,38.18
2019-05-18T16:57:31.839Z,38.61
2019-05-18T17:00:01.848Z,38.82
2019-05-18T17:02:32.950Z,40.12
2019-05-18T17:05:04.300Z,40.26
2019-05-18T17:07:36.156Z,41.11
2019-05-18T17:10:07.638Z,41.87
2019-05-18T17:12:39.284Z,41.24
2019-05-18T17:15:10.714Z,41.75
2019-05-18T17:17:41.077Z,41.93
2019-05-18T17:20:12.132Z,42.83
2019-05-18T17:22:43.909Z,42.85
2019-05-18T17:25:19.371Z,43.19
2019-05-18T17:27:50.801Z,42.48
2019-05-18T17:30:25.643Z,43.55
2019-05-18T17:32:57.143Z,44.49
2019-05-18T17:35:28.945Z,43.83
2019-05-18T17:38:00.956Z,43.50
2019-05-18T17:40:33.592Z,43.32
2019-05-18T17:43:05.709Z,43.76
2019-05-18T17:45:38.047Z,43.86
2019-05-18T17:48:09.694Z,43.49
2019-05-18T17:50:41.174Z,43.46
2019-05-18T17:53:12.948Z,43.35
2019-05-18T17:55:44.803Z,44.18
2019-05-18T17:58:16.202Z,44.67
2019-05-18T18:00:48.190Z,44.74
2019-05-18T18:03:20.217Z,45.82
2019-05-18T18:05:52.272Z,46.06
2019-05-18T18:08:24.909Z,46.74
2019-05-18T18:10:57.950Z,46.96
2019-05-18T18:13:29.393Z,47.23
2019-05-18T18:16:01.453Z,47.72
2019-05-18T18:18:34.967Z,48.23
2019-05-18T18:21:07.585Z,49.06
2019-05-18T18:23:39.575Z,49.53
2019-05-18T18:26:11.449Z,50.79
2019-05-18T18:28:43.294Z,51.25
2019-05-18T18:31:15.006Z,52.21
2019-05-18T18:33:47.481Z,52.75
2019-05-18T18:36:18.628Z,55.95
2019-05-18T18:38:51.275Z,57.25
2019-05-18T18:41:22.961Z,59.01
2019-05-18T18:43:54.832Z,60.21
2019-05-18T18:46:26.385Z,60.89
2019-05-18T18:48:57.911Z,61.60
2019-05-18T18:51:29.994Z,61.15
2019-05-18T18:54:01.950Z,61.75
2019-05-18T18:56:33.355Z,61.15
2019-05-18T18:59:05.679Z,61.00
2019-05-18T19:01:37.337Z,62.20
2019-05-18T19:04:08.721Z,61.71
2019-05-18T19:06:41.064Z,62.61
2019-05-18T19:09:12.294Z,62.81
2019-05-18T19:11:45.109Z,64.26
2019-05-18T19:14:18.512Z,64.49
2019-05-18T19:16:54.972Z,64.84
2019-05-18T19:19:28.413Z,65.70
2019-05-18T19:22:00.540Z,64.99
2019-05-18T19:24:34.700Z,65.98
2019-05-18T19:27:07.142Z,66.11
2019-05-18T19:29:39.882Z,66.68
2019-05-18T19:32:15.136Z,67.02
2019-05-18T19:34:48.379Z,68.55
2019-05-18T19:37:21.788Z,68.50
2019-05-18T19:39:55.305Z,68.40
2019-05-18T19:42:27.908Z,68.53
2019-05-18T19:44:59.872Z,69.11
2019-05-18T19:47:32.145Z,69.21
2019-05-18T19:50:05.704Z,68.89
2019-05-18T19:52:39.637Z,68.98
2019-05-18T19:55:12.842Z,69.76
2019-05-18T19:57:47.962Z,70.62
2019-05-18T20:00:25.720Z,70.77
2019-05-18T20:02:59.485Z,71.03
2019-05-18T20:05:31.451Z,71.11
2019-05-18T20:08:04.773Z,71.12
2019-05-18T20:10:36.641Z,71.45
2019-05-18T20:13:09.981Z,72.38
2019-05-18T20:15:41.879Z,71.64
2019-05-18T20:18:13.550Z,72.13
2019-05-18T20:20:47.077Z,72.63
2019-05-18T20:23:20.359Z,73.08
2019-05-18T20:25:53.198Z,73.59
2019-05-18T20:28:25.979Z,73.17
2019-05-18T20:30:58.615Z,73.73
2019-05-18T20:33:30.277Z,74.65
2019-05-18T20:36:02.851Z,74.19
2019-05-18T20:38:35.141Z,74.05
2019-05-18T20:41:07.568Z,74.04
2019-05-18T20:43:40.283Z,74.69
2019-05-18T20:46:12.069Z,74.32
2019-05-18T20:48:43.479Z,74.60
2019-05-18T20:51:15.291Z,74.81
2019-05-18T20:53:46.931Z,74.52
2019-05-18T20:56:19.230Z,74.53
2019-05-18T20:58:51.074Z,75.00
2019-05-18T21:01:22.928Z,75.07
2019-05-18T21:03:55.437Z,76.09
2019-05-18T21:06:27.477Z,75.84
2019-05-18T21:08:59.646Z,75.83
2019-05-18T21:11:34.361Z,75.86
2019-05-18T21:14:05.824Z,76.38
2019-05-18T21:16:37.577Z,76.30
2019-05-18T21:19:08.792Z,76.13
2019-05-18T21:21:40.998Z,76.29
2019-05-18T21:24:14.743Z,76.19
2019-05-18T21:26:47.570Z,77.02
2019-05-18T21:29:19.144Z,77.55
2019-05-18T21:31:50.700Z,78.24
2019-05-18T21:34:22.798Z,78.09
2019-05-18T21:36:54.539Z,79.30
2019-05-18T21:39:26.613Z,79.42
2019-05-18T21:41:58.093Z,79.83
2019-05-18T21:44:29.941Z,79.98
2019-05-18T21:47:01.574Z,80.04
2019-05-18T21:49:33.818Z,80.09
2019-05-18T21:52:06.070Z,80.09
2019-05-18T21:54:38.436Z,80.06
2019-05-18T21:57:10.498Z,80.01
2019-05-18T21:59:42.071Z,80.37
2019-05-18T22:02:14.361Z,81.20
2019-05-18T22:04:46.580Z,80.01
2019-05-18T22:07:18.994Z,79.98
2019-05-18T22:09:53.674Z,81.06
2019-05-18T22:12:24.700Z,80.80
2019-05-18T22:14:56.715Z,80.76
2019-05-18T22:17:29.188Z,80.65
2019-05-18T22:20:00.867Z,79.92
2019-05-18T22:22:32.665Z,81.21
2019-05-18T22:25:05.497Z,80.70
2019-05-18T22:27:36.589Z,81.15
2019-05-18T22:30:08.397Z,80.96
2019-05-18T22:32:40.116Z,80.50
2019-05-18T22:35:11.830Z,81.13
2019-05-18T22:37:43.251Z,80.77
2019-05-18T22:40:15.225Z,81.13
2019-05-18T22:42:46.776Z,80.57
2019-05-18T22:45:18.864Z,80.80
2019-05-18T22:47:49.991Z,81.34
2019-05-18T22:50:22.123Z,80.78
2019-05-18T22:52:54.641Z,81.49
2019-05-18T22:55:26.853Z,81.40
2019-05-18T22:57:58.009Z,81.41
2019-05-18T23:00:29.875Z,82.30
2019-05-18T23:03:02.223Z,82.13
2019-05-18T23:05:34.332Z,82.07
2019-05-18T23:08:05.974Z,82.28
2019-05-18T23:10:38.175Z,82.70
2019-05-18T23:13:11.440Z,82.87
2019-05-18T23:15:43.168Z,82.96
2019-05-18T23:18:15.808Z,83.71
2019-05-18T23:20:47.304Z,83.84
2019-05-18T23:23:20.011Z,83.79
2019-05-18T23:25:53.065Z,83.27
2019-05-18T23:28:24.749Z,82.84
2019-05-18T23:30:56.259Z,82.59
2019-05-18T23:33:27.972Z,82.42
2019-05-18T23:36:00.414Z,83.31
2019-05-18T23:38:31.573Z,82.73
2019-05-18T23:41:03.064Z,83.17
2019-05-18T23:43:36.785Z,82.84
2019-05-18T23:46:08.316Z,82.66
2019-05-18T23:48:39.943Z,83.60
2019-05-18T23:51:11.473Z,83.67
2019-05-18T23:53:44.028Z,83.22
2019-05-18T23:56:16.224Z,83.67
2019-05-18T23:58:47.454Z,83.58
